Time;durP1;ratioP1;P1;durP2;ratioP2;P2;SDS_P1;SDS_P2;PMS_P1;PMS_P2;Temp;Humidity;BMP_temperature;BMP_pressure;BME280_temperature;BME280_humidity;BME280_pressure;Samples;Min_cycle;Max_cycle;Signal;HPM_P1;HPM_P2
2022/06/30 00:00:08;;;;;;;12.70;9.23;;;;;;;18.94;81.32;100960.41;4901567;29;20489;-92
2022/06/30 00:02:34;;;;;;;11.38;9.88;;;;;;;18.79;82.13;100937.16;4919184;29;20060;-92
2022/06/30 00:05:06;;;;;;;16.30;10.13;;;;;;;18.77;81.69;100927.41;4917590;29;20036;-93
2022/06/30 00:07:34;;;;;;;13.60;9.90;;;;;;;18.77;81.86;100930.13;4917281;29;20091;-93
2022/06/30 00:10:03;;;;;;;11.85;9.77;;;;;;;18.71;82.22;100920.53;4917703;29;20028;-92
2022/06/30 00:12:34;;;;;;;12.77;10.25;;;;;;;18.71;82.12;100934.09;4928617;29;20028;-94
2022/06/30 00:15:03;;;;;;;10.88;9.75;;;;;;;18.64;81.84;100913.91;4913803;29;20111;-91
2022/06/30 00:17:30;;;;;;;13.65;10.13;;;;;;;18.80;82.30;100939.59;4886771;29;20039;-92
2022/06/30 00:19:55;;;;;;;14.98;9.77;;;;;;;18.73;82.09;100931.84;4919485;29;20025;-93
2022/06/30 00:22:20;;;;;;;13.07;10.03;;;;;;;18.67;82.18;100919.56;4920300;29;20039;-92
2022/06/30 00:24:49;;;;;;;13.13;9.83;;;;;;;18.74;82.19;100935.38;4959716;29;20019;-91
2022/06/30 00:27:26;;;;;;;11.40;9.88;;;;;;;18.67;81.99;100919.56;4957210;28;20087;-92
2022/06/30 00:29:51;;;;;;;14.82;10.05;;;;;;;18.61;82.71;100921.59;4920199;29;20064;-93
2022/06/30 00:32:17;;;;;;;14.63;9.37;;;;;;;18.66;82.53;100923.38;4930450;29;20025;-92
2022/06/30 00:34:42;;;;;;;13.50;9.57;;;;;;;18.61;82.68;100927.03;4925952;29;20032;-93
2022/06/30 00:37:07;;;;;;;15.23;9.00;;;;;;;18.57;82.75;100925.22;4918635;29;20437;-91
2022/06/30 00:39:33;;;;;;;15.67;9.97;;;;;;;18.53;82.72;100926.97;4918225;29;20333;-91
2022/06/30 00:41:58;;;;;;;15.60;10.35;;;;;;;18.46;82.74;100919.25;4911484;29;20021;-93
2022/06/30 00:44:25;;;;;;;13.80;10.17;;;;;;;18.41;82.94;100922.09;4899416;29;20080;-92
2022/06/30 00:46:50;;;;;;;17.73;10.05;;;;;;;18.36;83.60;100916.78;4884523;29;20024;-92
2022/06/30 00:49:20;;;;;;;12.10;9.70;;;;;;;18.34;83.12;100924.44;4903308;29;20116;-92
2022/06/30 00:51:46;;;;;;;12.80;10.20;;;;;;;18.30;83.15;100918.81;4891730;29;20009;-92
2022/06/30 00:54:13;;;;;;;14.52;10.18;;;;;;;18.25;83.39;100927.06;4950062;28;20035;-92
2022/06/30 00:56:42;;;;;;;13.65;9.50;;;;;;;18.14;84.65;100918.38;4943050;29;20035;-92
2022/06/30 00:59:09;;;;;;;15.95;9.80;;;;;;;18.10;83.73;100914.66;4946762;29;20036;-92
2022/06/30 01:01:36;;;;;;;11.65;9.57;;;;;;;18.04;83.76;100918.63;4938789;29;20080;-92
2022/06/30 01:04:03;;;;;;;12.32;10.05;;;;;;;18.04;84.30;100929.47;4939286;29;20067;-93
2022/06/30 01:06:29;;;;;;;13.97;9.50;;;;;;;18.00;84.23;100913.81;4930641;29;20035;-93
2022/06/30 01:08:57;;;;;;;12.33;10.07;;;;;;;18.07;84.14;100918.00;4921678;29;20292;-92
2022/06/30 01:14:09;;;;;;;13.05;9.30;;;;;;;18.07;84.09;100918.81;4951254;29;20056;-93
2022/06/30 01:16:42;;;;;;;14.43;10.20;;;;;;;18.07;83.98;100924.22;4957811;29;20091;-93
2022/06/30 01:19:08;;;;;;;12.60;9.55;;;;;;;18.01;84.00;100915.41;4950550;29;20059;-92
2022/06/30 01:21:34;;;;;;;12.48;9.52;;;;;;;17.96;84.28;100917.41;4957825;29;20039;-93
2022/06/30 01:24:06;;;;;;;11.27;9.60;;;;;;;17.89;84.78;100917.84;4929561;29;20021;-93
2022/06/30 01:26:32;;;;;;;10.85;9.75;;;;;;;17.86;84.90;100930.06;4904476;29;20112;-92
2022/06/30 01:28:59;;;;;;;14.38;9.55;;;;;;;17.75;84.91;100920.56;4919423;29;20008;-93
2022/06/30 01:31:24;;;;;;;11.45;9.70;;;;;;;17.73;85.63;100927.38;4936597;29;20032;-90
2022/06/30 01:33:50;;;;;;;13.43;9.77;;;;;;;17.67;85.79;100932.94;4953132;29;20022;-90
2022/06/30 01:36:16;;;;;;;12.20;9.77;;;;;;;17.64;86.04;100935.41;4933751;29;20028;-90
2022/06/30 01:38:41;;;;;;;14.27;9.63;;;;;;;17.57;86.38;100930.41;4934849;29;20024;-89
2022/06/30 01:41:07;;;;;;;15.53;10.00;;;;;;;17.52;86.13;100936.75;4892832;29;20307;-90
2022/06/30 01:43:33;;;;;;;12.70;10.05;;;;;;;17.46;86.53;100942.56;4915819;29;20044;-90
2022/06/30 01:45:59;;;;;;;10.60;9.48;;;;;;;17.41;86.40;100936.16;4920978;29;20481;-90
2022/06/30 01:48:24;;;;;;;11.70;9.30;;;;;;;17.39;87.13;100932.94;4914965;29;20025;-90
2022/06/30 01:50:52;;;;;;;13.37;9.93;;;;;;;17.28;87.83;100936.97;4912831;29;20021;-90
2022/06/30 01:53:18;;;;;;;14.40;9.50;;;;;;;17.24;88.19;100946.78;4912953;29;20057;-90
2022/06/30 01:55:43;;;;;;;13.30;10.20;;;;;;;17.19;87.89;100947.69;4913299;29;20024;-89
2022/06/30 01:58:08;;;;;;;10.70;9.60;;;;;;;17.13;88.58;100934.56;4922361;29;20367;-91
2022/06/30 02:00:34;;;;;;;11.83;10.17;;;;;;;17.09;88.02;100935.16;4948232;29;20431;-91
2022/06/30 02:03:00;;;;;;;11.13;9.47;;;;;;;17.08;87.88;100946.25;4935218;29;20025;-90
2022/06/30 02:05:26;;;;;;;12.43;9.25;;;;;;;17.06;87.87;100941.16;4918724;29;20065;-90
2022/06/30 02:07:53;;;;;;;9.75;8.75;;;;;;;17.04;88.55;100948.75;4918123;29;20024;-90
2022/06/30 02:10:21;;;;;;;12.88;9.85;;;;;;;16.96;88.49;100946.75;4933119;29;20416;-91
2022/06/30 02:12:47;;;;;;;14.13;9.27;;;;;;;16.94;88.88;100946.22;4932337;29;20056;-90
2022/06/30 02:15:24;;;;;;;10.63;9.27;;;;;;;16.93;88.48;100950.81;4910533;29;20025;-89
2022/06/30 02:17:53;;;;;;;12.23;10.00;;;;;;;16.84;88.50;100932.84;4917730;29;20310;-90
2022/06/30 02:20:23;;;;;;;11.07;9.70;;;;;;;16.85;89.16;100951.50;4925934;29;20043;-90
2022/06/30 02:22:51;;;;;;;13.60;10.05;;;;;;;16.84;89.19;100946.38;4924162;29;20031;-89
2022/06/30 02:25:19;;;;;;;16.27;10.43;;;;;;;16.79;88.88;100947.28;4916005;29;20036;-90
2022/06/30 02:27:44;;;;;;;14.48;10.55;;;;;;;16.74;89.28;100950.88;4933129;29;20027;-90
2022/06/30 02:30:10;;;;;;;16.47;11.63;;;;;;;16.69;90.08;100958.28;4934825;29;20070;-89
2022/06/30 02:32:35;;;;;;;15.13;11.65;;;;;;;16.64;90.05;100956.44;4941367;29;20032;-90
2022/06/30 02:35:02;;;;;;;17.17;11.50;;;;;;;16.65;90.25;100955.34;4929930;29;20032;-90
2022/06/30 02:37:27;;;;;;;13.50;11.05;;;;;;;16.62;89.85;100953.22;4925308;29;20032;-89
2022/06/30 02:39:53;;;;;;;14.10;11.15;;;;;;;16.54;90.11;100940.41;4911062;29;20032;-88
2022/06/30 02:42:19;;;;;;;12.57;10.87;;;;;;;16.46;90.84;100937.25;4910009;29;20086;-89
2022/06/30 02:44:44;;;;;;;19.35;12.75;;;;;;;16.45;91.22;100959.19;4916311;29;20020;-89
2022/06/30 02:47:10;;;;;;;16.23;12.40;;;;;;;16.44;90.93;100958.38;4930719;29;20040;-89
2022/06/30 02:49:37;;;;;;;26.15;12.82;;;;;;;16.41;90.24;100942.75;4929269;29;20046;-89
2022/06/30 02:52:03;;;;;;;17.77;12.90;;;;;;;16.42;91.22;100947.06;4913610;29;20044;-90
2022/06/30 02:54:28;;;;;;;17.05;12.73;;;;;;;16.35;91.32;100944.72;4906608;29;20036;-90
2022/06/30 02:56:53;;;;;;;16.10;12.53;;;;;;;16.29;91.68;100945.09;4910122;29;20024;-89
2022/06/30 02:59:20;;;;;;;18.20;12.93;;;;;;;16.25;90.79;100936.00;4925969;29;20047;-90
2022/06/30 03:01:45;;;;;;;15.73;13.00;;;;;;;16.28;91.24;100948.91;4932522;29;20091;-91
2022/06/30 03:04:10;;;;;;;16.83;13.23;;;;;;;16.22;91.24;100941.97;4930907;29;20088;-91
2022/06/30 03:06:36;;;;;;;16.00;13.00;;;;;;;16.15;91.83;100939.66;4931602;29;20359;-90
2022/06/30 03:09:02;;;;;;;17.60;13.07;;;;;;;16.13;91.79;100937.22;4922033;29;20061;-90
2022/06/30 03:11:27;;;;;;;17.48;12.88;;;;;;;16.13;91.74;100952.66;4913890;29;20020;-90
2022/06/30 03:13:53;;;;;;;16.50;13.17;;;;;;;16.10;92.01;100942.41;4918295;29;20028;-89
2022/06/30 03:16:18;;;;;;;17.58;13.50;;;;;;;16.05;91.97;100935.19;4918211;29;20081;-89
2022/06/30 03:18:45;;;;;;;15.80;13.43;;;;;;;16.03;92.29;100940.88;4918700;29;20063;-88
2022/06/30 03:21:11;;;;;;;15.35;13.15;;;;;;;16.04;91.98;100936.28;4930845;29;20036;-89
2022/06/30 03:23:36;;;;;;;21.43;14.13;;;;;;;16.01;92.84;100947.66;4927526;29;20040;-89
2022/06/30 03:26:03;;;;;;;17.87;13.20;;;;;;;15.97;91.82;100933.94;4928377;29;20291;-88
2022/06/30 03:31:27;;;;;;;16.83;13.40;;;;;;;15.86;92.38;100921.66;4919768;29;20080;-89
2022/06/30 03:34:01;;;;;;;15.55;13.25;;;;;;;15.71;91.92;100909.13;4928735;29;20653;-90
2022/06/30 03:36:27;;;;;;;18.83;12.30;;;;;;;15.82;92.36;100931.41;4921289;29;20316;-89
2022/06/30 03:39:06;;;;;;;17.03;13.63;;;;;;;15.67;91.88;100908.09;4921251;29;20285;-90
2022/06/30 03:41:39;;;;;;;19.70;14.35;;;;;;;15.57;93.52;100898.25;4919470;29;20028;-89
2022/06/30 03:44:04;;;;;;;19.30;14.43;;;;;;;15.71;92.72;100917.22;4916900;29;20037;-89
2022/06/30 03:46:35;;;;;;;16.83;12.65;;;;;;;15.81;92.26;100936.00;4927042;29;20035;-89
2022/06/30 03:49:04;;;;;;;17.97;13.03;;;;;;;15.75;92.61;100924.47;4934979;29;20020;-89
2022/06/30 03:51:35;;;;;;;17.87;12.83;;;;;;;15.70;92.07;100911.03;4938950;29;20288;-89
2022/06/30 03:54:16;;;;;;;17.92;13.05;;;;;;;15.80;92.17;100915.50;4958389;28;20023;-90
2022/06/30 03:56:41;;;;;;;16.40;13.25;;;;;;;15.76;92.07;100906.34;4959307;28;20046;-90
2022/06/30 03:59:12;;;;;;;15.77;13.30;;;;;;;15.87;92.40;100923.25;4937596;28;20020;-91
2022/06/30 04:02:08;;;;;;;17.40;13.40;;;;;;;15.75;92.01;100904.75;4920055;29;20031;-89
2022/06/30 04:04:38;;;;;;;17.45;13.45;;;;;;;15.74;92.74;100892.31;4894432;29;20149;-89
2022/06/30 04:07:06;;;;;;;17.85;13.35;;;;;;;15.68;93.19;100888.91;4921106;29;20032;-90
2022/06/30 04:09:37;;;;;;;17.75;14.25;;;;;;;15.73;92.47;100891.53;4916210;29;20081;-88
2022/06/30 04:12:22;;;;;;;;;;;;;;;;;;;;;
2022/06/30 04:14:54;;;;;;;15.23;13.50;;;;;;;15.88;92.88;100908.66;4959545;28;20087;-89
2022/06/30 04:17:23;;;;;;;15.37;13.03;;;;;;;15.96;91.94;100910.72;4953702;29;20044;-90
2022/06/30 04:19:50;;;;;;;18.13;12.85;;;;;;;16.09;92.24;100919.19;4928039;29;20037;-90
2022/06/30 04:22:16;;;;;;;18.10;14.25;;;;;;;16.13;92.52;100921.00;4955733;28;20016;-91
2022/06/30 04:24:43;;;;;;;18.20;14.77;;;;;;;16.16;92.78;100919.59;4946969;28;20029;-93
2022/06/30 04:27:08;;;;;;;18.90;13.52;;;;;;;16.24;91.92;100920.88;4912942;29;20024;-92
2022/06/30 04:29:33;;;;;;;17.48;14.13;;;;;;;16.50;90.67;100924.75;4932722;28;20039;-92
2022/06/30 04:34:43;;;;;;;19.98;13.63;;;;;;;16.64;90.44;100948.34;4939160;28;20117;-96
2022/06/30 04:37:09;;;;;;;19.13;15.17;;;;;;;16.60;91.78;100936.53;4940093;28;20019;-95
2022/06/30 04:39:34;;;;;;;18.17;13.80;;;;;;;16.57;91.06;100945.22;4937282;28;20028;-95
2022/06/30 04:41:59;;;;;;;17.40;14.43;;;;;;;16.60;91.28;100941.94;4920188;29;20291;-90
2022/06/30 04:44:25;;;;;;;18.70;15.17;;;;;;;16.69;91.71;100942.84;4920772;29;20029;-91
2022/06/30 04:46:50;;;;;;;20.47;14.83;;;;;;;16.85;92.03;100980.47;4929835;28;20020;-92
2022/06/30 04:49:16;;;;;;;22.53;15.37;;;;;;;17.19;91.05;100947.69;4931116;28;20024;-92
2022/06/30 04:51:41;;;;;;;19.27;12.93;;;;;;;17.70;88.37;100942.34;4937093;28;20033;-91
2022/06/30 04:54:06;;;;;;;18.03;12.90;;;;;;;18.81;84.98;100990.03;4935122;28;20039;-93
2022/06/30 04:56:32;;;;;;;16.47;12.13;;;;;;;19.69;80.08;100960.56;4921525;29;20013;-91
2022/06/30 04:59:00;;;;;;;14.73;10.23;;;;;;;20.53;75.90;100971.34;4931138;28;20015;-93
2022/06/30 05:01:25;;;;;;;16.73;11.48;;;;;;;21.42;72.81;100985.53;4941156;28;20023;-88
2022/06/30 05:03:50;;;;;;;15.83;11.70;;;;;;;21.87;69.84;100979.53;4942550;28;20012;-88
2022/06/30 05:06:16;;;;;;;14.15;10.30;;;;;;;22.35;67.22;100992.97;4943164;28;20019;-91
2022/06/30 05:08:42;;;;;;;14.10;11.13;;;;;;;22.77;65.74;100998.41;4938057;28;20035;-86
2022/06/30 05:11:07;;;;;;;11.13;9.93;;;;;;;23.11;64.48;100985.50;4937232;29;20091;-83
2022/06/30 05:13:32;;;;;;;12.97;10.03;;;;;;;23.42;62.40;100989.63;4928628;29;20343;-83
2022/06/30 05:15:58;;;;;;;14.93;11.13;;;;;;;23.74;61.77;100995.31;4929863;29;20028;-83
2022/06/30 05:18:26;;;;;;;15.73;12.10;;;;;;;23.93;61.18;100985.69;4931636;29;20073;-82
2022/06/30 05:20:52;;;;;;;13.98;11.40;;;;;;;24.37;59.44;100985.06;4903944;29;20500;-81
2022/06/30 05:23:17;;;;;;;15.05;11.13;;;;;;;24.72;57.72;100986.38;4917570;29;20031;-82
2022/06/30 05:28:26;;;;;;;18.45;11.82;;;;;;;25.13;55.97;100978.81;4932569;29;20047;-85
2022/06/30 05:30:52;;;;;;;17.37;13.07;;;;;;;25.39;55.20;100991.97;4936965;29;20024;-89
2022/06/30 05:33:21;;;;;;;14.57;12.35;;;;;;;25.67;54.68;100991.06;4941509;28;20016;-88
2022/06/30 05:35:51;;;;;;;19.45;12.48;;;;;;;25.53;54.92;100988.81;4909169;29;20318;-88
2022/06/30 05:38:20;;;;;;;16.77;13.20;;;;;;;25.74;54.68;100990.44;4934173;29;20017;-87
2022/06/30 05:40:46;;;;;;;17.27;14.27;;;;;;;25.64;53.71;100977.28;4938882;28;20287;-86
2022/06/30 05:43:16;;;;;;;17.40;13.82;;;;;;;25.93;53.60;100994.38;4935186;28;20039;-86
2022/06/30 05:45:46;;;;;;;20.02;13.57;;;;;;;26.00;52.99;100991.78;4932018;28;20047;-86
2022/06/30 05:48:11;;;;;;;21.05;14.63;;;;;;;25.98;52.34;100988.59;4905886;29;20139;-88
2022/06/30 05:50:38;;;;;;;17.40;14.07;;;;;;;25.73;53.21;100968.84;4959518;28;20455;-86
2022/06/30 05:53:03;;;;;;;21.20;14.60;;;;;;;25.77;53.81;100992.44;4935610;29;20043;-86
2022/06/30 05:55:28;;;;;;;21.02;14.55;;;;;;;25.64;53.18;100985.50;4921063;29;20044;-87
2022/06/30 05:58:01;;;;;;;17.63;13.63;;;;;;;25.47;54.00;100987.47;4926097;29;20021;-87
2022/06/30 06:00:29;;;;;;;22.13;13.90;;;;;;;25.01;54.54;100984.41;4954293;29;20087;-84
2022/06/30 06:02:58;;;;;;;21.67;13.43;;;;;;;24.68;56.00;100979.97;4928117;29;20039;-85
2022/06/30 06:05:23;;;;;;;16.80;12.57;;;;;;;24.42;56.64;100990.25;4940748;28;20330;-85
2022/06/30 06:07:49;;;;;;;14.60;11.80;;;;;;;24.25;57.64;100996.84;4940277;29;20071;-85
2022/06/30 06:10:15;;;;;;;16.60;11.98;;;;;;;23.86;58.06;100991.75;4938198;29;20039;-84
2022/06/30 06:15:16;;;;;;;15.77;9.55;;;;;;;23.40;59.23;100991.13;5031213;23;20040;-86
2022/06/30 06:17:48;;;;;;;13.48;9.70;;;;;;;23.21;59.40;100995.22;4928774;29;20159;-85
2022/06/30 06:20:15;;;;;;;14.63;10.20;;;;;;;22.96;60.25;101003.34;4937312;28;20121;-88
2022/06/30 06:22:41;;;;;;;16.87;10.40;;;;;;;22.69;61.54;100996.53;4934867;29;20299;-88
2022/06/30 06:25:08;;;;;;;12.63;9.52;;;;;;;22.66;62.26;101013.59;4937242;29;20056;-87
2022/06/30 06:27:34;;;;;;;15.90;9.98;;;;;;;22.56;62.91;101014.03;4941215;28;20032;-87
2022/06/30 06:30:03;;;;;;;16.05;10.27;;;;;;;22.15;63.68;101008.22;4940588;28;20120;-87
2022/06/30 06:32:29;;;;;;;14.05;10.05;;;;;;;21.97;64.76;101010.28;4935330;28;20043;-89
2022/06/30 06:34:54;;;;;;;12.90;10.63;;;;;;;21.87;65.93;101008.72;4935280;29;20028;-92
2022/06/30 06:37:19;;;;;;;12.63;10.27;;;;;;;21.80;65.13;101006.53;4929423;29;20340;-86
2022/06/30 06:39:45;;;;;;;14.07;8.83;;;;;;;21.98;65.45;101004.50;4916656;29;20088;-86
2022/06/30 06:42:10;;;;;;;12.83;9.50;;;;;;;22.07;65.33;101024.31;4918092;29;20024;-89
2022/06/30 06:44:35;;;;;;;18.10;10.07;;;;;;;21.98;65.84;101009.97;4921788;29;20020;-87
2022/06/30 06:47:01;;;;;;;14.73;9.30;;;;;;;22.05;65.86;101009.44;4935780;29;20040;-87
2022/06/30 06:49:27;;;;;;;13.05;9.18;;;;;;;21.91;66.28;101018.63;4926343;29;20036;-86
2022/06/30 06:51:53;;;;;;;15.77;9.70;;;;;;;21.87;67.17;101017.72;4909068;29;20419;-85
2022/06/30 06:54:19;;;;;;;15.68;9.10;;;;;;;21.92;67.49;101019.44;4937264;29;20028;-85
2022/06/30 06:59:37;;;;;;;12.52;9.00;;;;;;;22.01;66.35;101022.91;5858198;23;20275;-81
2022/06/30 07:02:06;;;;;;;14.35;9.00;;;;;;;21.97;67.29;101015.72;5476522;23;20054;-84
2022/06/30 07:04:35;;;;;;;14.63;8.30;;;;;;;22.10;67.87;101028.31;4953423;29;20031;-83
2022/06/30 07:07:00;;;;;;;16.97;8.93;;;;;;;22.18;67.65;101029.41;4958506;29;20314;-85
2022/06/30 07:09:26;;;;;;;15.15;8.82;;;;;;;22.23;67.55;101037.38;4948045;29;20531;-83
2022/06/30 07:11:54;;;;;;;12.93;8.07;;;;;;;22.26;67.63;101044.13;4939245;29;20028;-83
2022/06/30 07:14:19;;;;;;;14.88;8.38;;;;;;;22.22;66.74;101039.31;4934195;29;20036;-85
2022/06/30 07:16:44;;;;;;;14.60;9.13;;;;;;;22.16;67.45;101046.09;4930628;29;20047;-83
2022/06/30 07:19:10;;;;;;;19.65;9.32;;;;;;;22.13;68.02;101035.84;4924784;29;20032;-86
2022/06/30 07:21:36;;;;;;;13.97;8.20;;;;;;;22.22;67.67;101044.78;4917065;29;20481;-85
2022/06/30 07:24:01;;;;;;;16.67;8.33;;;;;;;22.32;67.38;101057.22;4916635;29;20481;-82
2022/06/30 07:26:26;;;;;;;12.40;8.07;;;;;;;22.25;67.38;101054.22;4914034;29;20028;-83
2022/06/30 07:28:51;;;;;;;15.48;8.40;;;;;;;22.27;67.23;101057.41;4915039;29;20040;-86
2022/06/30 07:31:17;;;;;;;15.53;8.33;;;;;;;22.18;66.97;101062.16;4916075;29;20043;-86
2022/06/30 07:33:42;;;;;;;16.53;8.00;;;;;;;22.19;66.84;101063.72;4916161;29;20082;-86
2022/06/30 07:36:08;;;;;;;16.63;8.37;;;;;;;22.26;66.70;101057.75;4916389;29;20045;-86
2022/06/30 07:38:34;;;;;;;13.73;7.38;;;;;;;22.31;66.80;101068.47;4916545;29;20091;-87
2022/06/30 07:41:00;;;;;;;16.80;7.73;;;;;;;22.38;65.92;101057.81;4916680;29;20030;-85
2022/06/30 07:43:25;;;;;;;20.13;7.78;;;;;;;22.45;66.34;101065.50;4913911;29;20043;-85
2022/06/30 07:45:52;;;;;;;15.77;7.75;;;;;;;22.47;66.23;101058.56;4916724;29;20032;-82
2022/06/30 07:48:18;;;;;;;18.08;7.50;;;;;;;22.63;65.97;101060.72;4886412;29;20120;-83
2022/06/30 07:50:43;;;;;;;11.67;6.60;;;;;;;22.93;65.51;101072.31;4897366;29;20115;-83
2022/06/30 07:53:09;;;;;;;12.77;6.80;;;;;;;23.09;64.71;101075.22;4900216;29;20043;-84
2022/06/30 07:55:34;;;;;;;11.75;6.75;;;;;;;23.08;64.72;101073.63;4900923;29;20040;-83
2022/06/30 07:58:04;;;;;;;15.40;5.80;;;;;;;23.38;64.34;101078.94;4907614;29;20441;-82
2022/06/30 08:00:32;;;;;;;13.35;6.15;;;;;;;23.54;63.33;101084.53;4907669;29;20041;-82
2022/06/30 08:02:59;;;;;;;18.98;7.22;;;;;;;23.59;62.85;101076.13;4914027;29;20046;-82
2022/06/30 08:05:24;;;;;;;13.18;6.82;;;;;;;23.57;61.60;101072.13;4905843;29;20032;-82
2022/06/30 08:07:49;;;;;;;14.67;6.50;;;;;;;23.52;62.17;101072.38;4925175;29;20039;-84
2022/06/30 08:10:16;;;;;;;9.50;6.03;;;;;;;23.55;64.01;101064.28;4928556;29;20024;-84
2022/06/30 08:12:41;;;;;;;16.30;6.22;;;;;;;23.53;62.36;101066.53;4926973;29;20024;-82
2022/06/30 08:15:07;;;;;;;11.07;6.03;;;;;;;23.57;62.01;101062.00;4921916;29;20473;-85
2022/06/30 08:17:33;;;;;;;13.30;5.28;;;;;;;23.83;62.42;101063.56;4916169;29;20031;-85
2022/06/30 08:19:59;;;;;;;13.43;6.03;;;;;;;23.94;62.60;101080.31;4916422;29;20503;-86
2022/06/30 08:22:25;;;;;;;17.52;6.82;;;;;;;23.75;61.24;101072.72;4918485;29;20035;-84
2022/06/30 08:24:50;;;;;;;17.70;6.72;;;;;;;23.63;63.35;101059.81;4916474;29;20024;-83
2022/06/30 08:27:16;;;;;;;12.17;5.43;;;;;;;23.74;61.79;101062.91;4904215;29;20060;-83
2022/06/30 08:29:41;;;;;;;15.50;5.32;;;;;;;23.99;60.12;101077.41;4905087;29;20039;-84
2022/06/30 08:32:07;;;;;;;14.13;5.33;;;;;;;24.25;59.46;101084.44;4914601;29;20055;-83
2022/06/30 08:34:32;;;;;;;12.30;5.03;;;;;;;24.31;59.60;101085.00;4914892;29;20039;-83
2022/06/30 08:36:57;;;;;;;10.73;5.87;;;;;;;24.43;57.81;101074.00;4910741;29;20053;-83
2022/06/30 08:42:08;;;;;;;10.67;4.80;;;;;;;24.44;58.31;101072.84;4912655;29;20094;-83
2022/06/30 08:44:37;;;;;;;12.97;5.30;;;;;;;24.43;57.09;101067.75;4912272;29;20296;-85
2022/06/30 08:47:04;;;;;;;7.68;4.20;;;;;;;24.57;57.26;101079.09;4893933;29;20033;-84
2022/06/30 08:49:32;;;;;;;8.48;4.43;;;;;;;24.48;57.16;101073.75;4890945;29;20045;-83
2022/06/30 08:52:00;;;;;;;9.50;4.28;;;;;;;24.79;57.97;101074.25;4921878;29;20032;-83
2022/06/30 08:54:27;;;;;;;9.90;4.55;;;;;;;24.83;57.43;101072.41;4924769;29;20056;-85
2022/06/30 08:56:54;;;;;;;11.80;4.90;;;;;;;24.92;57.26;101075.78;4922702;29;20028;-84
2022/06/30 08:59:22;;;;;;;14.57;4.90;;;;;;;25.06;56.10;101071.81;4917275;29;20485;-84
2022/06/30 09:01:49;;;;;;;12.70;4.13;;;;;;;25.43;55.73;101082.59;4899293;29;20032;-83
2022/06/30 09:04:14;;;;;;;11.38;4.32;;;;;;;25.45;54.79;101085.00;4925463;29;20028;-85
2022/06/30 09:06:44;;;;;;;9.43;4.13;;;;;;;25.57;54.35;101084.09;4922106;29;20116;-84
2022/06/30 09:09:10;;;;;;;8.85;4.00;;;;;;;25.77;53.79;101088.50;4916820;29;20036;-84
2022/06/30 09:11:55;;;;;;;9.13;4.20;;;;;;;26.04;54.68;101075.00;4914659;29;20119;-85
2022/06/30 09:14:43;;;;;;;8.43;4.33;;;;;;;26.21;52.20;101075.78;4911579;29;20060;-86
2022/06/30 09:17:17;;;;;;;8.03;3.63;;;;;;;26.35;52.53;101080.78;4910741;29;20320;-84
2022/06/30 09:19:50;;;;;;;8.38;3.60;;;;;;;26.63;52.66;101083.31;4936667;23;20051;-85
2022/06/30 09:22:16;;;;;;;9.65;5.07;;;;;;;26.78;49.74;101083.59;4927044;29;20094;-84
2022/06/30 09:24:42;;;;;;;8.80;4.32;;;;;;;26.93;49.25;101081.97;4931129;29;20103;-84
2022/06/30 09:27:19;;;;;;;13.07;3.78;;;;;;;26.88;50.10;101072.84;4933148;29;20126;-84
2022/06/30 09:30:07;;;;;;;12.02;4.30;;;;;;;26.78;51.17;101078.88;4933396;29;20431;-84
2022/06/30 09:32:47;;;;;;;10.13;3.60;;;;;;;26.78;51.66;101072.59;4929806;29;20097;-84
2022/06/30 09:35:14;;;;;;;9.83;4.13;;;;;;;26.70;51.14;101088.94;4933162;29;20019;-83
2022/06/30 09:37:42;;;;;;;13.10;4.57;;;;;;;26.85;49.56;101094.75;4928374;29;20296;-84
2022/06/30 09:40:09;;;;;;;8.25;4.25;;;;;;;26.94;47.96;101087.09;4922395;29;20123;-84
2022/06/30 10:08:33;;;;;;;8.23;3.95;;;;;;;28.33;46.06;101094.44;5762460;23;20067;-86
2022/06/30 10:11:06;;;;;;;8.98;3.70;;;;;;;28.07;45.77;101098.75;5133365;23;20014;-87
2022/06/30 10:13:39;;;;;;;6.75;3.78;;;;;;;28.16;46.67;101089.47;4935893;29;20114;-86
2022/06/30 10:16:06;;;;;;;8.48;4.10;;;;;;;28.61;44.60;101108.94;4935035;29;20031;-85
2022/06/30 10:18:36;;;;;;;11.98;4.55;;;;;;;28.69;43.28;101105.06;4935735;29;20480;-85
2022/06/30 10:21:02;;;;;;;8.43;4.10;;;;;;;29.08;43.08;101107.50;4934243;29;20028;-86
2022/06/30 10:23:28;;;;;;;9.18;3.50;;;;;;;29.20;43.85;101113.94;4917455;29;20028;-87
2022/06/30 10:25:54;;;;;;;10.10;4.17;;;;;;;28.98;42.61;101108.97;4925538;29;20503;-86
2022/06/30 10:28:22;;;;;;;11.77;3.67;;;;;;;28.83;43.95;101091.50;4929303;29;20066;-86
2022/06/30 10:30:55;;;;;;;6.97;4.18;;;;;;;28.80;44.94;101083.97;4937618;29;20102;-87
2022/06/30 10:33:52;;;;;;;10.43;4.90;;;;;;;28.29;44.56;101085.31;4939386;29;20119;-86
2022/06/30 10:36:32;;;;;;;6.97;4.20;;;;;;;28.13;44.72;101085.47;4928708;29;20107;-86
2022/06/30 10:39:09;;;;;;;9.97;3.47;;;;;;;28.02;44.61;101073.50;4942176;29;20298;-86
2022/06/30 10:41:46;;;;;;;8.27;3.05;;;;;;;27.96;45.55;101090.34;4917176;29;20127;-86
2022/06/30 10:44:15;;;;;;;6.53;3.40;;;;;;;27.96;44.55;101084.84;4936886;29;20035;-86
2022/06/30 10:46:55;;;;;;;8.88;3.80;;;;;;;28.23;45.17;101092.31;4925433;29;20111;-87
2022/06/30 10:49:22;;;;;;;8.25;3.50;;;;;;;28.57;43.42;101086.84;4922602;29;20070;-87
2022/06/30 10:51:48;;;;;;;6.90;3.40;;;;;;;28.41;43.94;101079.56;4919092;29;20015;-88
2022/06/30 10:54:33;;;;;;;8.77;4.05;;;;;;;28.61;44.28;101086.88;4922461;29;20395;-87
2022/06/30 10:57:00;;;;;;;5.18;3.05;;;;;;;28.51;43.67;101080.06;4924228;29;20027;-89
2022/06/30 10:59:36;;;;;;;7.17;3.80;;;;;;;28.38;42.01;101066.56;4941234;29;20032;-88
2022/06/30 11:02:25;;;;;;;7.20;3.97;;;;;;;28.78;43.71;101085.50;5293957;23;20311;-89
2022/06/30 11:08:46;;;;;;;9.63;3.72;;;;;;;29.24;42.94;101087.94;4935421;29;20050;-89
2022/06/30 11:11:59;;;;;;;9.05;3.10;;;;;;;29.43;42.39;101088.94;4966516;23;20063;-88
2022/06/30 11:32:10;;;;;;;6.67;2.63;;;;;;;30.04;40.18;101036.06;5121968;23;20059;-87
2022/06/30 11:34:40;;;;;;;6.10;3.23;;;;;;;29.92;39.52;101059.28;4905667;29;20312;-88
2022/06/30 11:46:32;;;;;;;5.32;2.45;;;;;;;30.99;39.06;101048.22;5325338;23;20029;-90
2022/06/30 11:52:40;;;;;;;6.70;2.50;;;;;;;31.31;37.93;101033.63;5196527;23;20062;-88
2022/06/30 11:55:17;;;;;;;7.97;2.55;;;;;;;30.83;37.96;101041.09;4932667;29;20273;-87
2022/06/30 11:57:48;;;;;;;5.93;2.30;;;;;;;30.21;38.96;101037.34;4946032;29;20007;-88
2022/06/30 12:02:51;;;;;;;7.70;2.90;;;;;;;29.45;41.06;101020.34;5673451;23;20296;-86
2022/06/30 12:05:36;;;;;;;4.45;2.38;;;;;;;29.52;40.48;100992.78;4957915;28;20068;-87
2022/06/30 12:11:40;;;;;;;7.75;2.90;;;;;;;29.24;41.17;100987.81;5074898;23;20115;-88
2022/06/30 12:14:05;;;;;;;5.82;2.78;;;;;;;29.13;41.72;100974.75;4936011;29;20027;-89
2022/06/30 12:23:03;;;;;;;5.70;2.63;;;;;;;29.72;40.00;100973.16;4946108;23;20119;-88
2022/06/30 12:26:06;;;;;;;5.72;3.00;;;;;;;30.15;39.68;100983.63;4923492;29;20503;-88
2022/06/30 12:29:16;;;;;;;8.55;3.50;;;;;;;29.49;40.77;100959.63;4934623;29;20030;-88
2022/06/30 12:31:42;;;;;;;6.93;3.28;;;;;;;29.62;40.04;100963.66;4966615;23;20044;-89
2022/06/30 12:41:11;;;;;;;5.53;2.85;;;;;;;29.42;41.34;100966.69;5216653;23;20055;-89
2022/06/30 12:44:03;;;;;;;7.45;3.75;;;;;;;29.43;41.39;100970.25;4954437;28;20364;-87
2022/06/30 12:46:39;;;;;;;5.20;2.75;;;;;;;29.01;41.82;100975.84;4951384;28;20051;-89
2022/06/30 12:49:05;;;;;;;7.30;3.10;;;;;;;29.36;41.94;100973.78;4935629;29;20028;-86
2022/06/30 12:51:36;;;;;;;6.17;3.30;;;;;;;30.00;40.78;100977.28;4932652;23;20046;-89
2022/06/30 12:54:05;;;;;;;7.63;3.47;;;;;;;30.06;39.95;100968.22;4934873;29;20039;-89
2022/06/30 12:56:34;;;;;;;5.70;3.50;;;;;;;30.06;38.61;100971.00;4936653;29;20032;-88
2022/06/30 12:59:01;;;;;;;7.32;2.75;;;;;;;30.28;39.80;100968.31;4938511;29;20074;-87
2022/06/30 13:01:32;;;;;;;8.38;2.80;;;;;;;30.15;39.52;100964.28;4929355;29;20439;-88